EGPB

Sumburgh Airport

Lerwick, United Kingdom
METAR EGPB 191950Z 25016KT 9999 FEW020 10/08 Q1013 NOSIG
Observed Flight Rules
Jun-19 @ 19:50 UTC (25 minutes ago) Visual Flight Rules
Wind Visibility Clouds
250° at 16 knots 10,000+ meters
  • Few at 2,000' AGL
Temperatures Readings
Current 10°C / 50°F
Dewpoint 8°C / 46°F
Humidity 88%
Altimeter 29.91" Hg
Pressure 1013 hPa
Elevation 5
METAR EGPB 191950Z 25016KT 9999 FEW020 10/08 Q1013 NOSIG
Observed Flight Rules
Jun-19 @ 19:50 UTC
(25 minutes ago)
VFR
Wind Visibility
250° at 16 knots 10,000+ meters
Clouds
  • Few at 2,000' AGL
Temperature Dewpoint
10°C / 50°F 8°C / 46°F
Humidity Altimeter Pressure
88% 29.91" Hg 1013 hPa